Detailed System and Site Information

System Data Health
Measure Timestamp Ago Health
Web Server Live 04:20:54, 21st January 2017 0 s health
Last live-data upload from local system (nw3) 04:20:52, 21st January 2017 2 s health
Last upload of secondary data 04:00:22, 21st January 2017 21 mins health
Latest Webcam upload 04:20:21, 21st January 2017 33 s health
Last upload of 24hr data log 04:19:08, 21st January 2017 2 mins health
Last full data process 04:20:07, 21st January 2017 47 s health
Last data downtime (>15 mins) 19:31:04, 14th January 2017 6 days
Local System and Site Information
Measure Value
WD Version & Build # 10.37R - 40
WD Start Time 02:37 26/11/16
WD Data Count 1687539
WD Memory Use 62,828 K
--- ---
Windows Uptime 6 Days 8 Hours 21 Minutes 11 Seconds
Free System Memory 2171 MB (Max: 4GB)
--- ---
Station Altitude 57 m (187 ft)
Station Latitude 51.556
Station Longitude -0.154
Machine Room Conditions
Measure Value
Temperature 16.8 °C
Temperature Trend -0.6 °C /hr
Relative Humidity 34%
Dew Point 0.8 °C
--- ---
Tmin Today 16.8 °C at 03:53
Tmax Today 19.4 °C at 00:00
Hmin Today 33% at 00:00
Hmax Today 34% at 01:53
Tmin Yesterday 14.9 °C at 05:57
Tmax Yesterday 20.8 °C at 15:16

Site owner and administrator: Ben Lee-Rodgers (2010 - present)

Last 10hrs Temp/Hum for Secondary Sensor and Indoors

Extra Sensors/Indoor

Other

Raw METAR from EGLL (Heathrow)

EGLL 210350Z AUTO 04005KT 9999 NCD M01/M02 Q1029 NOSIG
Decode Instructions
Source

WD Screenshot

not available